sensor_id;sensor_type;location;lat;lon;timestamp;P1;durP1;ratioP1;P2;durP2;ratioP2
76786;SDS011;65739;51.482;5.702;2022-12-07T00:01:15;26.73;;;16.08;;
76786;SDS011;65739;51.482;5.702;2022-12-07T00:03:51;25.42;;;15.60;;
76786;SDS011;65739;51.482;5.702;2022-12-07T00:06:18;33.00;;;17.08;;
76786;SDS011;65739;51.482;5.702;2022-12-07T00:08:44;27.27;;;16.08;;
76786;SDS011;65739;51.482;5.702;2022-12-07T00:11:15;33.72;;;16.40;;
76786;SDS011;65739;51.482;5.702;2022-12-07T00:13:42;31.35;;;16.90;;
76786;SDS011;65739;51.482;5.702;2022-12-07T00:16:10;28.60;;;16.77;;
76786;SDS011;65739;51.482;5.702;2022-12-07T00:18:38;29.33;;;17.52;;
76786;SDS011;65739;51.482;5.702;2022-12-07T00:21:26;33.67;;;17.52;;
76786;SDS011;65739;51.482;5.702;2022-12-07T00:23:53;30.88;;;17.98;;
76786;SDS011;65739;51.482;5.702;2022-12-07T00:26:22;35.58;;;18.20;;
76786;SDS011;65739;51.482;5.702;2022-12-07T00:28:59;33.40;;;17.65;;
76786;SDS011;65739;51.482;5.702;2022-12-07T00:31:27;35.15;;;17.25;;
76786;SDS011;65739;51.482;5.702;2022-12-07T00:33:56;34.13;;;17.95;;
76786;SDS011;65739;51.482;5.702;2022-12-07T00:36:23;27.83;;;16.10;;
76786;SDS011;65739;51.482;5.702;2022-12-07T00:38:50;33.78;;;17.33;;
76786;SDS011;65739;51.482;5.702;2022-12-07T00:41:58;36.13;;;19.55;;
76786;SDS011;65739;51.482;5.702;2022-12-07T00:44:07;35.90;;;19.13;;
76786;SDS011;65739;51.482;5.702;2022-12-07T00:46:33;32.35;;;17.83;;
76786;SDS011;65739;51.482;5.702;2022-12-07T00:49:01;39.92;;;17.60;;
76786;SDS011;65739;51.482;5.702;2022-12-07T00:51:27;38.20;;;18.40;;
76786;SDS011;65739;51.482;5.702;2022-12-07T00:53:53;33.38;;;18.02;;
76786;SDS011;65739;51.482;5.702;2022-12-07T00:56:25;34.35;;;18.92;;
76786;SDS011;65739;51.482;5.702;2022-12-07T00:58:53;35.38;;;17.35;;
76786;SDS011;65739;51.482;5.702;2022-12-07T01:01:24;34.33;;;16.92;;
76786;SDS011;65739;51.482;5.702;2022-12-07T01:03:52;25.95;;;15.80;;
76786;SDS011;65739;51.482;5.702;2022-12-07T01:06:19;31.95;;;16.30;;
76786;SDS011;65739;51.482;5.702;2022-12-07T01:08:45;28.77;;;15.63;;
76786;SDS011;65739;51.482;5.702;2022-12-07T01:11:13;27.05;;;15.68;;
76786;SDS011;65739;51.482;5.702;2022-12-07T01:13:41;27.52;;;15.82;;
76786;SDS011;65739;51.482;5.702;2022-12-07T01:16:07;29.70;;;15.82;;
76786;SDS011;65739;51.482;5.702;2022-12-07T01:18:38;36.80;;;16.63;;
76786;SDS011;65739;51.482;5.702;2022-12-07T01:21:11;27.48;;;16.90;;
76786;SDS011;65739;51.482;5.702;2022-12-07T01:24:00;30.67;;;16.20;;
76786;SDS011;65739;51.482;5.702;2022-12-07T01:26:33;32.08;;;16.63;;
76786;SDS011;65739;51.482;5.702;2022-12-07T01:29:01;29.30;;;16.50;;
76786;SDS011;65739;51.482;5.702;2022-12-07T01:31:27;32.47;;;17.20;;
76786;SDS011;65739;51.482;5.702;2022-12-07T01:33:54;30.25;;;17.00;;
76786;SDS011;65739;51.482;5.702;2022-12-07T01:36:22;33.20;;;18.00;;
76786;SDS011;65739;51.482;5.702;2022-12-07T01:38:52;27.77;;;17.15;;
76786;SDS011;65739;51.482;5.702;2022-12-07T01:41:21;38.15;;;18.30;;
76786;SDS011;65739;51.482;5.702;2022-12-07T01:46:50;38.70;;;17.70;;
76786;SDS011;65739;51.482;5.702;2022-12-07T01:49:40;33.35;;;17.40;;
76786;SDS011;65739;51.482;5.702;2022-12-07T01:54:49;30.75;;;16.00;;
76786;SDS011;65739;51.482;5.702;2022-12-07T01:57:19;26.05;;;14.65;;
76786;SDS011;65739;51.482;5.702;2022-12-07T01:59:53;28.25;;;14.40;;
76786;SDS011;65739;51.482;5.702;2022-12-07T02:02:32;28.80;;;15.27;;
76786;SDS011;65739;51.482;5.702;2022-12-07T02:05:08;29.23;;;15.27;;
76786;SDS011;65739;51.482;5.702;2022-12-07T02:07:34;29.25;;;15.20;;
76786;SDS011;65739;51.482;5.702;2022-12-07T02:10:19;34.17;;;15.68;;
76786;SDS011;65739;51.482;5.702;2022-12-07T02:12:47;27.38;;;14.20;;
76786;SDS011;65739;51.482;5.702;2022-12-07T02:15:17;27.15;;;14.32;;
76786;SDS011;65739;51.482;5.702;2022-12-07T02:29:32;22.80;;;12.48;;
76786;SDS011;65739;51.482;5.702;2022-12-07T02:34:55;24.05;;;13.25;;
76786;SDS011;65739;51.482;5.702;2022-12-07T02:37:52;32.13;;;13.50;;
76786;SDS011;65739;51.482;5.702;2022-12-07T02:40:43;26.83;;;13.00;;
76786;SDS011;65739;51.482;5.702;2022-12-07T02:43:16;26.15;;;14.15;;
76786;SDS011;65739;51.482;5.702;2022-12-07T02:45:49;23.20;;;13.23;;
76786;SDS011;65739;51.482;5.702;2022-12-07T02:48:18;25.63;;;12.75;;
76786;SDS011;65739;51.482;5.702;2022-12-07T02:50:49;26.65;;;13.80;;
76786;SDS011;65739;51.482;5.702;2022-12-07T02:53:31;28.48;;;13.77;;
76786;SDS011;65739;51.482;5.702;2022-12-07T02:56:26;21.20;;;13.10;;
76786;SDS011;65739;51.482;5.702;2022-12-07T02:59:11;26.92;;;13.00;;
76786;SDS011;65739;51.482;5.702;2022-12-07T03:02:16;27.05;;;13.63;;
76786;SDS011;65739;51.482;5.702;2022-12-07T03:05:26;22.58;;;12.02;;
76786;SDS011;65739;51.482;5.702;2022-12-07T03:08:04;26.52;;;13.32;;
76786;SDS011;65739;51.482;5.702;2022-12-07T03:13:33;24.85;;;13.80;;
76786;SDS011;65739;51.482;5.702;2022-12-07T03:16:21;25.38;;;13.25;;
76786;SDS011;65739;51.482;5.702;2022-12-07T03:19:01;27.27;;;13.88;;
76786;SDS011;65739;51.482;5.702;2022-12-07T03:21:49;32.78;;;15.30;;
76786;SDS011;65739;51.482;5.702;2022-12-07T03:24:57;25.92;;;14.18;;
76786;SDS011;65739;51.482;5.702;2022-12-07T03:27:24;34.25;;;15.50;;
76786;SDS011;65739;51.482;5.702;2022-12-07T03:29:59;26.85;;;15.75;;
76786;SDS011;65739;51.482;5.702;2022-12-07T03:32:31;28.00;;;14.82;;
76786;SDS011;65739;51.482;5.702;2022-12-07T03:38:08;28.60;;;15.38;;
76786;SDS011;65739;51.482;5.702;2022-12-07T03:40:30;27.15;;;14.82;;
76786;SDS011;65739;51.482;5.702;2022-12-07T03:43:17;28.45;;;15.52;;
76786;SDS011;65739;51.482;5.702;2022-12-07T03:45:45;27.33;;;15.32;;
76786;SDS011;65739;51.482;5.702;2022-12-07T03:48:51;28.52;;;15.43;;
76786;SDS011;65739;51.482;5.702;2022-12-07T03:51:23;27.55;;;14.60;;
76786;SDS011;65739;51.482;5.702;2022-12-07T03:53:54;26.08;;;13.55;;
76786;SDS011;65739;51.482;5.702;2022-12-07T03:56:31;26.42;;;13.80;;
76786;SDS011;65739;51.482;5.702;2022-12-07T03:58:58;26.45;;;14.30;;
76786;SDS011;65739;51.482;5.702;2022-12-07T04:01:24;31.05;;;13.25;;
76786;SDS011;65739;51.482;5.702;2022-12-07T04:03:50;25.95;;;14.40;;
76786;SDS011;65739;51.482;5.702;2022-12-07T04:06:16;29.30;;;13.98;;
76786;SDS011;65739;51.482;5.702;2022-12-07T04:08:42;30.48;;;14.15;;
76786;SDS011;65739;51.482;5.702;2022-12-07T04:11:08;24.77;;;14.32;;
76786;SDS011;65739;51.482;5.702;2022-12-07T04:13:34;28.00;;;13.73;;
76786;SDS011;65739;51.482;5.702;2022-12-07T04:16:24;21.73;;;12.75;;
76786;SDS011;65739;51.482;5.702;2022-12-07T04:18:50;17.70;;;11.50;;
76786;SDS011;65739;51.482;5.702;2022-12-07T04:21:16;22.95;;;11.85;;
76786;SDS011;65739;51.482;5.702;2022-12-07T04:23:41;19.02;;;11.15;;
76786;SDS011;65739;51.482;5.702;2022-12-07T04:26:07;17.02;;;11.05;;
76786;SDS011;65739;51.482;5.702;2022-12-07T04:28:32;26.67;;;11.70;;
76786;SDS011;65739;51.482;5.702;2022-12-07T04:30:58;25.40;;;12.15;;
76786;SDS011;65739;51.482;5.702;2022-12-07T04:33:24;20.92;;;10.82;;
76786;SDS011;65739;51.482;5.702;2022-12-07T04:35:50;26.10;;;11.75;;
76786;SDS011;65739;51.482;5.702;2022-12-07T04:38:15;15.30;;;10.50;;
76786;SDS011;65739;51.482;5.702;2022-12-07T04:40:41;18.90;;;10.63;;
76786;SDS011;65739;51.482;5.702;2022-12-07T04:43:07;19.70;;;9.95;;
76786;SDS011;65739;51.482;5.702;2022-12-07T04:45:32;22.55;;;11.40;;
76786;SDS011;65739;51.482;5.702;2022-12-07T04:47:58;20.55;;;10.25;;
76786;SDS011;65739;51.482;5.702;2022-12-07T04:50:24;24.08;;;10.00;;
76786;SDS011;65739;51.482;5.702;2022-12-07T04:52:49;19.17;;;10.13;;
76786;SDS011;65739;51.482;5.702;2022-12-07T04:55:15;24.45;;;10.75;;
76786;SDS011;65739;51.482;5.702;2022-12-07T04:57:41;20.85;;;9.65;;
76786;SDS011;65739;51.482;5.702;2022-12-07T05:00:09;17.40;;;10.02;;
76786;SDS011;65739;51.482;5.702;2022-12-07T05:02:35;13.68;;;9.45;;
76786;SDS011;65739;51.482;5.702;2022-12-07T05:05:01;21.20;;;9.57;;
76786;SDS011;65739;51.482;5.702;2022-12-07T05:07:27;17.02;;;9.05;;
76786;SDS011;65739;51.482;5.702;2022-12-07T05:09:53;16.98;;;9.00;;
76786;SDS011;65739;51.482;5.702;2022-12-07T05:12:19;18.52;;;9.43;;
76786;SDS011;65739;51.482;5.702;2022-12-07T05:14:44;14.23;;;8.82;;
76786;SDS011;65739;51.482;5.702;2022-12-07T05:17:10;16.50;;;8.70;;
76786;SDS011;65739;51.482;5.702;2022-12-07T05:19:36;17.63;;;8.60;;
76786;SDS011;65739;51.482;5.702;2022-12-07T05:22:05;19.80;;;8.75;;
76786;SDS011;65739;51.482;5.702;2022-12-07T05:24:31;22.20;;;8.80;;
76786;SDS011;65739;51.482;5.702;2022-12-07T05:29:24;12.43;;;8.18;;
76786;SDS011;65739;51.482;5.702;2022-12-07T05:32:08;16.48;;;9.27;;
76786;SDS011;65739;51.482;5.702;2022-12-07T05:34:37;17.73;;;8.68;;
76786;SDS011;65739;51.482;5.702;2022-12-07T05:37:06;16.92;;;8.77;;
76786;SDS011;65739;51.482;5.702;2022-12-07T05:39:35;16.42;;;8.45;;
76786;SDS011;65739;51.482;5.702;2022-12-07T05:42:03;17.70;;;8.85;;
76786;SDS011;65739;51.482;5.702;2022-12-07T05:44:38;16.40;;;8.77;;
76786;SDS011;65739;51.482;5.702;2022-12-07T05:47:07;18.42;;;8.63;;
76786;SDS011;65739;51.482;5.702;2022-12-07T05:49:36;20.23;;;9.98;;
76786;SDS011;65739;51.482;5.702;2022-12-07T05:52:25;18.05;;;8.98;;
76786;SDS011;65739;51.482;5.702;2022-12-07T05:54:58;17.08;;;9.25;;
76786;SDS011;65739;51.482;5.702;2022-12-07T05:57:24;17.50;;;9.40;;
76786;SDS011;65739;51.482;5.702;2022-12-07T05:59:50;15.13;;;9.10;;
76786;SDS011;65739;51.482;5.702;2022-12-07T06:02:18;15.13;;;9.27;;
76786;SDS011;65739;51.482;5.702;2022-12-07T06:04:45;16.95;;;8.75;;
76786;SDS011;65739;51.482;5.702;2022-12-07T06:07:12;24.00;;;11.27;;
76786;SDS011;65739;51.482;5.702;2022-12-07T06:09:39;17.38;;;9.38;;
76786;SDS011;65739;51.482;5.702;2022-12-07T06:12:05;18.80;;;9.18;;
76786;SDS011;65739;51.482;5.702;2022-12-07T06:14:53;23.52;;;9.98;;
76786;SDS011;65739;51.482;5.702;2022-12-07T06:17:18;16.88;;;8.73;;
76786;SDS011;65739;51.482;5.702;2022-12-07T06:19:47;15.13;;;8.85;;
76786;SDS011;65739;51.482;5.702;2022-12-07T06:22:13;19.23;;;9.55;;
76786;SDS011;65739;51.482;5.702;2022-12-07T06:24:42;15.90;;;9.68;;
76786;SDS011;65739;51.482;5.702;2022-12-07T06:27:11;18.42;;;10.40;;
76786;SDS011;65739;51.482;5.702;2022-12-07T06:29:37;27.50;;;10.65;;
76786;SDS011;65739;51.482;5.702;2022-12-07T06:32:03;18.80;;;10.32;;
76786;SDS011;65739;51.482;5.702;2022-12-07T06:34:32;18.98;;;10.68;;
76786;SDS011;65739;51.482;5.702;2022-12-07T06:37:01;20.15;;;10.80;;
76786;SDS011;65739;51.482;5.702;2022-12-07T06:39:27;23.13;;;11.07;;
76786;SDS011;65739;51.482;5.702;2022-12-07T06:41:56;24.08;;;11.95;;
76786;SDS011;65739;51.482;5.702;2022-12-07T06:44:22;25.77;;;11.38;;
76786;SDS011;65739;51.482;5.702;2022-12-07T06:46:49;28.05;;;12.63;;
76786;SDS011;65739;51.482;5.702;2022-12-07T06:49:15;23.00;;;12.40;;
76786;SDS011;65739;51.482;5.702;2022-12-07T06:51:41;29.88;;;12.20;;
76786;SDS011;65739;51.482;5.702;2022-12-07T06:54:30;21.98;;;11.73;;
76786;SDS011;65739;51.482;5.702;2022-12-07T06:57:05;24.20;;;12.35;;
76786;SDS011;65739;51.482;5.702;2022-12-07T06:59:31;25.40;;;12.68;;
76786;SDS011;65739;51.482;5.702;2022-12-07T07:01:57;22.98;;;12.05;;
76786;SDS011;65739;51.482;5.702;2022-12-07T07:04:25;25.80;;;12.68;;
76786;SDS011;65739;51.482;5.702;2022-12-07T07:06:51;30.45;;;13.48;;
76786;SDS011;65739;51.482;5.702;2022-12-07T07:09:17;28.52;;;13.38;;
76786;SDS011;65739;51.482;5.702;2022-12-07T07:11:42;24.17;;;12.43;;
76786;SDS011;65739;51.482;5.702;2022-12-07T07:14:09;24.52;;;12.98;;
76786;SDS011;65739;51.482;5.702;2022-12-07T07:16:37;25.60;;;12.48;;
76786;SDS011;65739;51.482;5.702;2022-12-07T07:19:06;24.52;;;12.85;;
76786;SDS011;65739;51.482;5.702;2022-12-07T07:21:32;30.10;;;13.05;;
76786;SDS011;65739;51.482;5.702;2022-12-07T07:23:57;26.90;;;12.65;;
76786;SDS011;65739;51.482;5.702;2022-12-07T07:26:23;29.45;;;11.88;;
76786;SDS011;65739;51.482;5.702;2022-12-07T07:28:49;27.88;;;12.18;;
76786;SDS011;65739;51.482;5.702;2022-12-07T07:31:16;27.80;;;12.98;;
76786;SDS011;65739;51.482;5.702;2022-12-07T07:36:13;23.63;;;11.23;;
76786;SDS011;65739;51.482;5.702;2022-12-07T07:38:50;30.33;;;12.48;;
76786;SDS011;65739;51.482;5.702;2022-12-07T07:41:26;26.25;;;11.00;;
76786;SDS011;65739;51.482;5.702;2022-12-07T07:46:49;29.17;;;12.07;;
76786;SDS011;65739;51.482;5.702;2022-12-07T07:49:24;31.88;;;13.90;;
76786;SDS011;65739;51.482;5.702;2022-12-07T07:51:59;24.73;;;12.95;;
76786;SDS011;65739;51.482;5.702;2022-12-07T07:57:49;28.92;;;12.88;;
76786;SDS011;65739;51.482;5.702;2022-12-07T08:00:15;29.08;;;14.20;;
76786;SDS011;65739;51.482;5.702;2022-12-07T08:02:59;22.85;;;12.55;;
76786;SDS011;65739;51.482;5.702;2022-12-07T08:05:28;32.85;;;13.40;;
76786;SDS011;65739;51.482;5.702;2022-12-07T08:08:00;22.77;;;12.15;;
76786;SDS011;65739;51.482;5.702;2022-12-07T08:10:26;27.70;;;12.90;;
76786;SDS011;65739;51.482;5.702;2022-12-07T08:13:03;22.15;;;12.18;;
76786;SDS011;65739;51.482;5.702;2022-12-07T08:15:47;23.10;;;11.52;;
76786;SDS011;65739;51.482;5.702;2022-12-07T08:18:19;21.13;;;11.45;;
76786;SDS011;65739;51.482;5.702;2022-12-07T08:20:51;26.58;;;11.80;;
76786;SDS011;65739;51.482;5.702;2022-12-07T08:23:36;22.08;;;11.27;;
76786;SDS011;65739;51.482;5.702;2022-12-07T08:26:17;29.15;;;11.77;;
76786;SDS011;65739;51.482;5.702;2022-12-07T08:28:50;23.52;;;10.93;;
76786;SDS011;65739;51.482;5.702;2022-12-07T08:31:48;19.85;;;9.98;;
76786;SDS011;65739;51.482;5.702;2022-12-07T08:34:15;18.25;;;9.90;;
76786;SDS011;65739;51.482;5.702;2022-12-07T08:36:50;21.65;;;9.73;;
76786;SDS011;65739;51.482;5.702;2022-12-07T08:39:16;17.88;;;9.65;;
76786;SDS011;65739;51.482;5.702;2022-12-07T08:41:55;18.73;;;9.90;;
76786;SDS011;65739;51.482;5.702;2022-12-07T08:44:33;22.20;;;9.80;;
76786;SDS011;65739;51.482;5.702;2022-12-07T08:47:11;17.55;;;9.40;;
76786;SDS011;65739;51.482;5.702;2022-12-07T08:49:38;16.58;;;8.75;;
76786;SDS011;65739;51.482;5.702;2022-12-07T08:52:06;23.38;;;8.63;;
76786;SDS011;65739;51.482;5.702;2022-12-07T08:54:32;17.17;;;9.20;;
76786;SDS011;65739;51.482;5.702;2022-12-07T08:57:03;18.90;;;8.98;;
76786;SDS011;65739;51.482;5.702;2022-12-07T08:59:31;16.10;;;7.82;;
76786;SDS011;65739;51.482;5.702;2022-12-07T09:02:03;19.15;;;8.50;;
76786;SDS011;65739;51.482;5.702;2022-12-07T09:04:32;18.92;;;8.15;;
76786;SDS011;65739;51.482;5.702;2022-12-07T09:06:58;14.57;;;6.45;;
76786;SDS011;65739;51.482;5.702;2022-12-07T09:09:24;14.63;;;6.72;;
76786;SDS011;65739;51.482;5.702;2022-12-07T09:11:50;10.95;;;5.50;;
76786;SDS011;65739;51.482;5.702;2022-12-07T09:14:16;11.27;;;5.97;;
76786;SDS011;65739;51.482;5.702;2022-12-07T09:16:42;12.63;;;5.43;;
76786;SDS011;65739;51.482;5.702;2022-12-07T09:19:08;19.17;;;4.97;;
76786;SDS011;65739;51.482;5.702;2022-12-07T09:21:36;7.80;;;4.32;;
76786;SDS011;65739;51.482;5.702;2022-12-07T09:24:02;10.25;;;4.38;;
76786;SDS011;65739;51.482;5.702;2022-12-07T09:26:28;9.90;;;4.28;;
76786;SDS011;65739;51.482;5.702;2022-12-07T09:28:54;14.90;;;4.53;;
76786;SDS011;65739;51.482;5.702;2022-12-07T09:31:23;13.45;;;4.20;;
76786;SDS011;65739;51.482;5.702;2022-12-07T09:33:59;11.48;;;4.40;;
76786;SDS011;65739;51.482;5.702;2022-12-07T09:36:25;9.95;;;3.38;;
76786;SDS011;65739;51.482;5.702;2022-12-07T09:38:52;5.93;;;3.30;;
76786;SDS011;65739;51.482;5.702;2022-12-07T09:41:18;9.70;;;3.28;;
76786;SDS011;65739;51.482;5.702;2022-12-07T09:43:45;8.73;;;3.00;;
76786;SDS011;65739;51.482;5.702;2022-12-07T09:46:13;7.40;;;3.70;;
76786;SDS011;65739;51.482;5.702;2022-12-07T09:48:41;10.63;;;3.10;;
76786;SDS011;65739;51.482;5.702;2022-12-07T09:53:48;6.60;;;3.22;;
76786;SDS011;65739;51.482;5.702;2022-12-07T09:56:15;13.40;;;3.22;;
76786;SDS011;65739;51.482;5.702;2022-12-07T09:58:43;7.57;;;3.20;;
76786;SDS011;65739;51.482;5.702;2022-12-07T10:01:14;8.88;;;3.20;;
76786;SDS011;65739;51.482;5.702;2022-12-07T10:03:49;9.45;;;2.97;;
76786;SDS011;65739;51.482;5.702;2022-12-07T10:06:23;10.68;;;2.97;;
76786;SDS011;65739;51.482;5.702;2022-12-07T10:08:49;8.90;;;2.75;;
76786;SDS011;65739;51.482;5.702;2022-12-07T10:11:15;8.18;;;3.47;;
76786;SDS011;65739;51.482;5.702;2022-12-07T10:13:45;7.32;;;3.13;;
76786;SDS011;65739;51.482;5.702;2022-12-07T10:18:57;11.65;;;3.70;;
76786;SDS011;65739;51.482;5.702;2022-12-07T10:21:58;8.65;;;2.95;;
76786;SDS011;65739;51.482;5.702;2022-12-07T10:24:24;6.05;;;3.20;;
76786;SDS011;65739;51.482;5.702;2022-12-07T10:26:51;9.23;;;2.85;;
76786;SDS011;65739;51.482;5.702;2022-12-07T10:29:22;12.55;;;3.28;;
76786;SDS011;65739;51.482;5.702;2022-12-07T10:31:58;7.93;;;3.08;;
76786;SDS011;65739;51.482;5.702;2022-12-07T10:43:00;8.93;;;2.60;;
76786;SDS011;65739;51.482;5.702;2022-12-07T10:45:34;7.20;;;2.20;;
76786;SDS011;65739;51.482;5.702;2022-12-07T10:48:15;8.90;;;2.50;;
76786;SDS011;65739;51.482;5.702;2022-12-07T10:51:04;8.25;;;1.90;;
76786;SDS011;65739;51.482;5.702;2022-12-07T11:00:01;3.90;;;1.98;;
76786;SDS011;65739;51.482;5.702;2022-12-07T11:03:05;11.18;;;1.90;;
76786;SDS011;65739;51.482;5.702;2022-12-07T11:05:48;5.95;;;1.65;;
76786;SDS011;65739;51.482;5.702;2022-12-07T11:08:42;7.05;;;2.00;;
76786;SDS011;65739;51.482;5.702;2022-12-07T11:11:36;3.88;;;1.85;;
76786;SDS011;65739;51.482;5.702;2022-12-07T11:22:13;5.80;;;1.65;;
76786;SDS011;65739;51.482;5.702;2022-12-07T11:24:53;7.55;;;1.90;;
76786;SDS011;65739;51.482;5.702;2022-12-07T11:27:26;3.50;;;1.83;;
76786;SDS011;65739;51.482;5.702;2022-12-07T11:38:00;6.00;;;1.55;;
76786;SDS011;65739;51.482;5.702;2022-12-07T11:40:35;7.13;;;1.70;;
76786;SDS011;65739;51.482;5.702;2022-12-07T11:43:20;6.10;;;1.45;;
76786;SDS011;65739;51.482;5.702;2022-12-07T11:45:59;5.28;;;1.77;;
76786;SDS011;65739;51.482;5.702;2022-12-07T11:48:33;8.63;;;1.70;;
76786;SDS011;65739;51.482;5.702;2022-12-07T11:51:06;8.63;;;1.38;;
76786;SDS011;65739;51.482;5.702;2022-12-07T11:56:28;5.97;;;1.25;;
76786;SDS011;65739;51.482;5.702;2022-12-07T11:59:03;6.28;;;1.65;;
76786;SDS011;65739;51.482;5.702;2022-12-07T12:02:14;8.95;;;1.63;;
76786;SDS011;65739;51.482;5.702;2022-12-07T12:04:46;9.15;;;1.85;;
76786;SDS011;65739;51.482;5.702;2022-12-07T12:07:14;6.38;;;1.40;;
76786;SDS011;65739;51.482;5.702;2022-12-07T12:15:18;4.68;;;1.83;;
76786;SDS011;65739;51.482;5.702;2022-12-07T12:20:36;6.68;;;1.50;;
76786;SDS011;65739;51.482;5.702;2022-12-07T12:23:17;7.95;;;1.70;;
76786;SDS011;65739;51.482;5.702;2022-12-07T12:25:54;6.78;;;1.27;;
76786;SDS011;65739;51.482;5.702;2022-12-07T12:28:41;5.50;;;1.10;;
76786;SDS011;65739;51.482;5.702;2022-12-07T12:33:57;5.05;;;1.25;;
76786;SDS011;65739;51.482;5.702;2022-12-07T12:36:26;4.30;;;1.85;;
76786;SDS011;65739;51.482;5.702;2022-12-07T12:39:09;5.60;;;1.25;;
76786;SDS011;65739;51.482;5.702;2022-12-07T12:54:19;5.47;;;1.33;;
76786;SDS011;65739;51.482;5.702;2022-12-07T13:02:24;5.82;;;1.33;;
76786;SDS011;65739;51.482;5.702;2022-12-07T13:05:00;3.80;;;1.13;;
76786;SDS011;65739;51.482;5.702;2022-12-07T13:12:57;8.20;;;1.33;;
76786;SDS011;65739;51.482;5.702;2022-12-07T13:18:22;6.20;;;1.17;;
76786;SDS011;65739;51.482;5.702;2022-12-07T13:21:00;2.50;;;0.80;;
76786;SDS011;65739;51.482;5.702;2022-12-07T13:23:36;6.22;;;1.30;;
76786;SDS011;65739;51.482;5.702;2022-12-07T13:37:12;3.42;;;0.90;;
76786;SDS011;65739;51.482;5.702;2022-12-07T13:39:57;2.95;;;0.70;;
76786;SDS011;65739;51.482;5.702;2022-12-07T13:42:43;3.03;;;0.70;;
76786;SDS011;65739;51.482;5.702;2022-12-07T13:51:45;4.22;;;0.82;;
76786;SDS011;65739;51.482;5.702;2022-12-07T13:54:11;2.08;;;0.63;;
76786;SDS011;65739;51.482;5.702;2022-12-07T13:56:37;5.78;;;1.00;;
76786;SDS011;65739;51.482;5.702;2022-12-07T13:59:14;4.15;;;1.15;;
76786;SDS011;65739;51.482;5.702;2022-12-07T14:01:42;6.82;;;0.95;;
76786;SDS011;65739;51.482;5.702;2022-12-07T14:04:29;2.28;;;0.90;;
76786;SDS011;65739;51.482;5.702;2022-12-07T14:07:25;6.35;;;1.20;;
76786;SDS011;65739;51.482;5.702;2022-12-07T14:10:05;3.03;;;1.02;;
76786;SDS011;65739;51.482;5.702;2022-12-07T14:12:47;2.95;;;1.15;;
76786;SDS011;65739;51.482;5.702;2022-12-07T14:15:15;2.85;;;1.15;;
76786;SDS011;65739;51.482;5.702;2022-12-07T14:17:50;3.45;;;0.93;;
76786;SDS011;65739;51.482;5.702;2022-12-07T14:20:37;2.72;;;1.10;;
76786;SDS011;65739;51.482;5.702;2022-12-07T14:23:04;4.95;;;1.20;;
76786;SDS011;65739;51.482;5.702;2022-12-07T14:25:49;2.92;;;1.13;;
76786;SDS011;65739;51.482;5.702;2022-12-07T14:30:56;3.80;;;1.25;;
76786;SDS011;65739;51.482;5.702;2022-12-07T14:33:23;6.75;;;1.30;;
76786;SDS011;65739;51.482;5.702;2022-12-07T14:35:50;5.22;;;1.27;;
76786;SDS011;65739;51.482;5.702;2022-12-07T14:38:20;4.07;;;1.33;;
76786;SDS011;65739;51.482;5.702;2022-12-07T14:40:46;6.97;;;1.40;;
76786;SDS011;65739;51.482;5.702;2022-12-07T14:43:14;3.10;;;1.23;;
76786;SDS011;65739;51.482;5.702;2022-12-07T14:45:42;5.32;;;1.60;;
76786;SDS011;65739;51.482;5.702;2022-12-07T14:48:10;4.15;;;1.30;;
76786;SDS011;65739;51.482;5.702;2022-12-07T14:50:38;6.22;;;1.80;;
76786;SDS011;65739;51.482;5.702;2022-12-07T14:53:17;4.03;;;1.35;;
76786;SDS011;65739;51.482;5.702;2022-12-07T14:55:47;8.70;;;1.30;;
76786;SDS011;65739;51.482;5.702;2022-12-07T14:58:16;4.75;;;1.60;;
76786;SDS011;65739;51.482;5.702;2022-12-07T15:00:43;5.40;;;1.40;;
76786;SDS011;65739;51.482;5.702;2022-12-07T15:03:09;8.88;;;2.17;;
76786;SDS011;65739;51.482;5.702;2022-12-07T15:05:35;5.75;;;1.38;;
76786;SDS011;65739;51.482;5.702;2022-12-07T15:08:05;6.85;;;1.40;;
76786;SDS011;65739;51.482;5.702;2022-12-07T15:10:32;4.35;;;1.58;;
76786;SDS011;65739;51.482;5.702;2022-12-07T15:13:05;4.10;;;1.67;;
76786;SDS011;65739;51.482;5.702;2022-12-07T15:15:52;8.90;;;1.90;;
76786;SDS011;65739;51.482;5.702;2022-12-07T15:18:18;7.90;;;2.03;;
76786;SDS011;65739;51.482;5.702;2022-12-07T15:20:45;4.10;;;1.80;;
76786;SDS011;65739;51.482;5.702;2022-12-07T15:23:13;4.15;;;1.70;;
76786;SDS011;65739;51.482;5.702;2022-12-07T15:25:40;5.38;;;1.73;;
76786;SDS011;65739;51.482;5.702;2022-12-07T15:28:07;4.70;;;1.75;;
76786;SDS011;65739;51.482;5.702;2022-12-07T15:30:32;8.98;;;3.88;;
76786;SDS011;65739;51.482;5.702;2022-12-07T15:32:58;5.47;;;2.58;;
76786;SDS011;65739;51.482;5.702;2022-12-07T15:35:24;8.77;;;4.15;;
76786;SDS011;65739;51.482;5.702;2022-12-07T15:37:49;7.38;;;3.97;;
76786;SDS011;65739;51.482;5.702;2022-12-07T15:40:15;9.15;;;3.95;;
76786;SDS011;65739;51.482;5.702;2022-12-07T15:42:41;8.40;;;3.20;;
76786;SDS011;65739;51.482;5.702;2022-12-07T15:45:07;5.45;;;2.67;;
76786;SDS011;65739;51.482;5.702;2022-12-07T15:47:36;8.73;;;2.15;;
76786;SDS011;65739;51.482;5.702;2022-12-07T15:50:08;4.65;;;2.58;;
76786;SDS011;65739;51.482;5.702;2022-12-07T15:52:35;5.57;;;2.20;;
76786;SDS011;65739;51.482;5.702;2022-12-07T15:55:01;5.25;;;2.15;;
76786;SDS011;65739;51.482;5.702;2022-12-07T15:57:31;3.97;;;2.40;;
76786;SDS011;65739;51.482;5.702;2022-12-07T15:59:57;5.53;;;2.47;;
76786;SDS011;65739;51.482;5.702;2022-12-07T16:02:23;7.50;;;3.10;;
76786;SDS011;65739;51.482;5.702;2022-12-07T16:04:49;8.63;;;2.35;;
76786;SDS011;65739;51.482;5.702;2022-12-07T16:07:16;4.65;;;2.67;;
76786;SDS011;65739;51.482;5.702;2022-12-07T16:09:45;5.78;;;3.03;;
76786;SDS011;65739;51.482;5.702;2022-12-07T16:12:20;7.22;;;3.33;;
76786;SDS011;65739;51.482;5.702;2022-12-07T16:14:46;6.05;;;2.95;;
76786;SDS011;65739;51.482;5.702;2022-12-07T16:17:12;7.28;;;3.13;;
76786;SDS011;65739;51.482;5.702;2022-12-07T16:19:38;5.70;;;3.30;;
76786;SDS011;65739;51.482;5.702;2022-12-07T16:22:06;6.95;;;2.83;;
76786;SDS011;65739;51.482;5.702;2022-12-07T16:24:32;4.32;;;2.90;;
76786;SDS011;65739;51.482;5.702;2022-12-07T16:26:57;6.95;;;3.30;;
76786;SDS011;65739;51.482;5.702;2022-12-07T16:29:23;8.85;;;3.45;;
76786;SDS011;65739;51.482;5.702;2022-12-07T16:31:49;8.35;;;3.47;;
76786;SDS011;65739;51.482;5.702;2022-12-07T16:34:16;8.25;;;3.67;;
76786;SDS011;65739;51.482;5.702;2022-12-07T16:36:42;8.02;;;3.55;;
76786;SDS011;65739;51.482;5.702;2022-12-07T16:39:08;6.97;;;3.08;;
76786;SDS011;65739;51.482;5.702;2022-12-07T16:41:35;6.18;;;2.95;;
76786;SDS011;65739;51.482;5.702;2022-12-07T16:44:04;6.22;;;2.90;;
76786;SDS011;65739;51.482;5.702;2022-12-07T16:46:33;5.82;;;3.10;;
76786;SDS011;65739;51.482;5.702;2022-12-07T16:48:59;5.60;;;2.97;;
76786;SDS011;65739;51.482;5.702;2022-12-07T16:51:25;7.82;;;4.18;;
76786;SDS011;65739;51.482;5.702;2022-12-07T16:53:51;11.20;;;5.53;;
76786;SDS011;65739;51.482;5.702;2022-12-07T16:56:17;8.02;;;4.40;;
76786;SDS011;65739;51.482;5.702;2022-12-07T16:58:43;7.57;;;3.42;;
76786;SDS011;65739;51.482;5.702;2022-12-07T17:01:11;5.25;;;3.60;;
76786;SDS011;65739;51.482;5.702;2022-12-07T17:03:39;9.87;;;3.70;;
76786;SDS011;65739;51.482;5.702;2022-12-07T17:06:21;5.82;;;3.25;;
76786;SDS011;65739;51.482;5.702;2022-12-07T17:08:49;10.50;;;3.33;;
76786;SDS011;65739;51.482;5.702;2022-12-07T17:11:26;5.55;;;3.38;;
76786;SDS011;65739;51.482;5.702;2022-12-07T17:13:53;6.10;;;3.30;;